createdAt,value
2022-08-08T00:00:56.240Z,19.26
2022-08-08T00:03:15.278Z,19.26
2022-08-08T00:06:03.156Z,19.26
2022-08-08T00:08:48.949Z,19.23
2022-08-08T00:11:46.538Z,19.25
2022-08-08T00:14:47.714Z,19.25
2022-08-08T00:18:02.360Z,19.18
2022-08-08T00:20:37.123Z,19.20
2022-08-08T00:23:11.199Z,19.10
2022-08-08T00:25:51.625Z,19.08
2022-08-08T00:28:35.928Z,19.04
2022-08-08T00:32:21.106Z,19.02
2022-08-08T00:34:54.462Z,19.01
2022-08-08T00:37:48.325Z,18.99
2022-08-08T00:41:23.197Z,18.96
2022-08-08T00:44:44.062Z,18.92
2022-08-08T00:47:36.669Z,18.90
2022-08-08T00:51:38.833Z,18.87
2022-08-08T00:54:48.227Z,18.82
2022-08-08T00:58:21.604Z,18.80
2022-08-08T01:01:29.470Z,18.79
2022-08-08T01:05:09.350Z,18.81
2022-08-08T01:08:52.194Z,18.80
2022-08-08T01:12:11.484Z,18.77
2022-08-08T01:15:37.104Z,18.74
2022-08-08T01:19:25.353Z,18.65
2022-08-08T01:22:39.187Z,18.73
2022-08-08T01:25:58.641Z,18.74
2022-08-08T01:29:12.228Z,18.84
2022-08-08T01:32:25.352Z,18.87
2022-08-08T01:35:47.298Z,18.87
2022-08-08T01:38:50.246Z,18.84
2022-08-08T01:41:38.040Z,18.80
2022-08-08T01:44:35.587Z,18.80
2022-08-08T01:48:15.707Z,18.73
2022-08-08T01:50:37.057Z,18.64
2022-08-08T01:55:16.029Z,18.61
2022-08-08T01:56:34.109Z,18.51
2022-08-08T01:59:25.004Z,18.44
2022-08-08T02:02:34.870Z,18.37
2022-08-08T02:05:33.752Z,18.33
2022-08-08T02:08:41.325Z,18.33
2022-08-08T02:11:59.307Z,18.30
2022-08-08T02:14:55.533Z,18.30
2022-08-08T02:17:42.538Z,18.30
2022-08-08T02:21:02.342Z,18.21
2022-08-08T02:23:31.731Z,18.15
2022-08-08T02:26:15.937Z,18.14
2022-08-08T02:29:08.840Z,18.11
2022-08-08T02:32:22.767Z,18.07
2022-08-08T02:36:02.607Z,18.02
2022-08-08T02:38:49.092Z,17.98
2022-08-08T02:42:05.493Z,18.01
2022-08-08T02:45:25.761Z,17.95
2022-08-08T02:48:36.302Z,17.92
2022-08-08T02:52:03.157Z,17.86
2022-08-08T02:55:40.794Z,17.78
2022-08-08T02:59:57.060Z,17.67
2022-08-08T03:03:10.339Z,17.59
2022-08-08T03:06:34.837Z,17.57
2022-08-08T03:10:06.700Z,17.56
2022-08-08T03:15:53.443Z,17.59
2022-08-08T03:16:44.064Z,17.63
2022-08-08T03:19:51.196Z,17.64
2022-08-08T03:22:38.834Z,17.62
2022-08-08T03:25:19.321Z,17.62
2022-08-08T03:28:00.838Z,17.57
2022-08-08T03:30:35.389Z,17.52
2022-08-08T03:33:55.907Z,17.56
2022-08-08T03:36:19.802Z,17.53
2022-08-08T03:39:07.347Z,17.55
2022-08-08T03:42:12.167Z,17.54
2022-08-08T03:44:38.803Z,17.52
2022-08-08T03:47:19.432Z,17.50
2022-08-08T03:50:00.845Z,17.51
2022-08-08T03:52:45.299Z,17.44
2022-08-08T03:55:57.441Z,17.38
2022-08-08T03:58:34.621Z,17.36
2022-08-08T04:01:23.274Z,17.37
2022-08-08T04:03:59.990Z,17.39
2022-08-08T04:06:38.537Z,17.40
2022-08-08T04:09:11.965Z,17.39
2022-08-08T04:11:57.785Z,17.38
2022-08-08T04:14:34.836Z,17.36
2022-08-08T04:17:22.340Z,17.33
2022-08-08T04:20:02.174Z,17.33
2022-08-08T04:22:35.537Z,17.30
2022-08-08T04:25:08.374Z,17.29
2022-08-08T04:28:35.600Z,17.30
2022-08-08T04:30:36.688Z,17.30
2022-08-08T04:33:16.009Z,17.34
2022-08-08T04:35:51.063Z,17.35
2022-08-08T04:38:22.515Z,17.37
2022-08-08T04:40:56.410Z,17.36
2022-08-08T04:43:31.627Z,17.40
2022-08-08T04:46:20.741Z,17.42
2022-08-08T04:48:53.749Z,17.44
2022-08-08T04:51:48.486Z,17.43
2022-08-08T04:54:39.072Z,17.46
2022-08-08T04:57:05.279Z,17.55
2022-08-08T04:59:42.381Z,17.63
2022-08-08T05:02:20.096Z,17.70
2022-08-08T05:04:52.714Z,17.78
2022-08-08T05:07:23.001Z,17.86
2022-08-08T05:09:53.308Z,17.94
2022-08-08T05:12:29.047Z,18.09
2022-08-08T05:15:00.350Z,18.21
2022-08-08T05:17:54.367Z,18.36
2022-08-08T05:20:27.073Z,18.51
2022-08-08T05:22:58.379Z,18.64
2022-08-08T05:25:41.248Z,18.71
2022-08-08T05:28:12.634Z,18.84
2022-08-08T05:30:47.194Z,18.92
2022-08-08T05:33:21.742Z,19.08
2022-08-08T05:35:57.302Z,19.21
2022-08-08T05:38:32.524Z,19.27
2022-08-08T05:41:11.987Z,19.42
2022-08-08T05:44:03.998Z,19.43
2022-08-08T05:46:36.644Z,19.44
2022-08-08T05:49:11.856Z,19.61
2022-08-08T05:51:48.949Z,19.77
2022-08-08T05:54:42.696Z,19.90
2022-08-08T05:57:57.471Z,19.97
2022-08-08T06:00:25.272Z,20.20
2022-08-08T06:03:22.915Z,20.33
2022-08-08T06:06:06.563Z,20.58
2022-08-08T06:08:40.848Z,20.70
2022-08-08T06:11:28.329Z,20.85
2022-08-08T06:14:00.665Z,21.02
2022-08-08T06:16:31.554Z,21.19
2022-08-08T06:19:19.736Z,21.36
2022-08-08T06:21:58.363Z,21.53
2022-08-08T06:24:37.542Z,21.69
2022-08-08T06:27:13.849Z,21.85
2022-08-08T06:30:01.910Z,22.14
2022-08-08T06:32:47.544Z,22.34
2022-08-08T06:36:04.275Z,22.48
2022-08-08T06:38:28.783Z,22.66
2022-08-08T06:41:08.334Z,22.74
2022-08-08T06:43:47.632Z,22.95
2022-08-08T06:46:30.804Z,23.15
2022-08-08T06:49:03.838Z,23.31
2022-08-08T06:51:52.287Z,23.48
2022-08-08T06:54:29.084Z,23.60
2022-08-08T06:57:00.289Z,23.75
2022-08-08T06:59:34.362Z,23.99
2022-08-08T07:02:29.545Z,24.22
2022-08-08T07:05:11.772Z,24.47
2022-08-08T07:08:03.124Z,24.72
2022-08-08T07:10:47.612Z,24.93
2022-08-08T07:13:25.171Z,25.11
2022-08-08T07:16:10.364Z,25.40
2022-08-08T07:19:05.560Z,25.58
2022-08-08T07:21:48.301Z,25.79
2022-08-08T07:24:29.047Z,26.03
2022-08-08T07:27:11.167Z,26.27
2022-08-08T07:30:02.534Z,26.48
2022-08-08T07:32:38.100Z,26.65
2022-08-08T07:35:14.079Z,26.79
2022-08-08T07:38:04.389Z,27.00
2022-08-08T07:40:49.119Z,27.20
2022-08-08T07:43:36.866Z,27.24
2022-08-08T07:46:23.385Z,27.43
2022-08-08T07:48:55.232Z,27.62
2022-08-08T07:51:53.130Z,27.83
2022-08-08T07:54:31.844Z,28.05
2022-08-08T07:57:20.059Z,28.16
2022-08-08T08:00:05.420Z,28.34
2022-08-08T08:03:11.094Z,28.46
2022-08-08T08:05:50.912Z,28.80
2022-08-08T08:08:35.332Z,28.88
2022-08-08T08:11:07.789Z,28.96
2022-08-08T08:14:07.396Z,29.00
2022-08-08T08:16:39.792Z,29.27
2022-08-08T08:19:14.844Z,29.43
2022-08-08T08:21:57.845Z,29.55
2022-08-08T08:24:39.614Z,29.67
2022-08-08T08:27:14.064Z,29.87
2022-08-08T08:29:51.966Z,30.29
2022-08-08T08:32:35.721Z,30.91
2022-08-08T08:35:15.058Z,31.61
2022-08-08T08:38:05.901Z,32.38
2022-08-08T08:40:37.191Z,33.26
2022-08-08T08:43:16.767Z,34.05
2022-08-08T08:45:50.466Z,34.84
2022-08-08T08:48:30.555Z,35.31
2022-08-08T08:51:06.138Z,35.95
2022-08-08T08:53:58.945Z,36.42
2022-08-08T08:56:35.318Z,36.24
2022-08-08T08:59:17.218Z,36.28
2022-08-08T09:01:58.355Z,36.27
2022-08-08T09:04:44.551Z,36.36
2022-08-08T09:07:39.100Z,36.76
2022-08-08T09:10:19.012Z,37.18
2022-08-08T09:12:53.120Z,37.54
2022-08-08T09:15:41.092Z,37.75
2022-08-08T09:18:18.049Z,37.52
2022-08-08T09:22:02.132Z,37.62
2022-08-08T09:23:44.504Z,37.89
2022-08-08T09:26:32.575Z,37.92
2022-08-08T09:29:11.861Z,38.26
2022-08-08T09:31:57.914Z,38.58
2022-08-08T09:34:54.448Z,38.41
2022-08-08T09:37:58.422Z,38.63
2022-08-08T09:40:45.466Z,38.77
2022-08-08T09:44:04.181Z,38.73
2022-08-08T09:46:30.745Z,38.76
2022-08-08T09:49:18.019Z,38.36
2022-08-08T09:52:06.317Z,38.26
2022-08-08T09:54:46.022Z,37.72
2022-08-08T09:57:35.123Z,36.85
2022-08-08T10:00:50.185Z,36.27
2022-08-08T10:03:10.424Z,37.10
2022-08-08T10:05:42.149Z,37.57
2022-08-08T10:08:17.045Z,38.00
2022-08-08T10:10:51.236Z,38.28
2022-08-08T10:13:29.814Z,38.64
2022-08-08T10:16:05.321Z,38.68
2022-08-08T10:18:39.742Z,38.88
2022-08-08T10:21:25.121Z,38.84
2022-08-08T10:24:00.566Z,38.93
2022-08-08T10:26:57.540Z,38.66
2022-08-08T10:29:58.741Z,38.53
2022-08-08T10:32:37.612Z,38.62
2022-08-08T10:36:06.749Z,38.94
2022-08-08T10:38:08.152Z,39.00
2022-08-08T10:40:41.656Z,39.01
2022-08-08T10:43:14.964Z,39.05
2022-08-08T10:45:55.769Z,39.09
2022-08-08T10:48:57.639Z,38.92
2022-08-08T10:51:31.411Z,39.16
2022-08-08T10:54:11.310Z,39.07
2022-08-08T10:56:43.277Z,39.35
2022-08-08T10:59:16.620Z,39.63
2022-08-08T11:01:54.887Z,40.01
2022-08-08T11:04:38.776Z,40.03
2022-08-08T11:07:11.541Z,39.85
2022-08-08T11:10:03.862Z,39.14
2022-08-08T11:12:38.373Z,39.51
2022-08-08T11:15:15.852Z,39.93
2022-08-08T11:18:01.089Z,39.84
2022-08-08T11:20:32.407Z,40.14
2022-08-08T11:23:05.711Z,40.46
2022-08-08T11:25:52.237Z,40.72
2022-08-08T11:28:29.404Z,41.16
2022-08-08T11:31:05.194Z,41.63
2022-08-08T11:33:53.031Z,41.75
2022-08-08T11:36:30.158Z,41.84
2022-08-08T11:39:01.016Z,41.84
2022-08-08T11:41:33.687Z,42.03
2022-08-08T11:44:05.575Z,42.38
2022-08-08T11:46:38.880Z,42.55
2022-08-08T11:49:17.189Z,42.44
2022-08-08T11:51:50.506Z,42.61
2022-08-08T11:54:38.401Z,42.84
2022-08-08T11:57:21.879Z,42.45
2022-08-08T12:00:05.618Z,42.81
2022-08-08T12:02:55.069Z,43.02
2022-08-08T12:05:36.160Z,43.19
2022-08-08T12:08:07.416Z,43.48
2022-08-08T12:10:49.893Z,43.41
2022-08-08T12:13:37.768Z,43.66
2022-08-08T12:16:19.832Z,43.80
2022-08-08T12:18:54.380Z,43.85
2022-08-08T12:21:59.919Z,43.62
2022-08-08T12:24:19.982Z,43.72
2022-08-08T12:26:53.014Z,43.83
2022-08-08T12:29:40.535Z,44.00
2022-08-08T12:32:20.304Z,44.00
2022-08-08T12:35:18.057Z,44.43
2022-08-08T12:38:02.676Z,44.34
2022-08-08T12:40:56.778Z,44.70
2022-08-08T12:43:46.407Z,44.95
2022-08-08T12:46:26.634Z,44.90
2022-08-08T12:49:24.955Z,44.79
2022-08-08T12:51:59.300Z,44.79
2022-08-08T12:54:36.327Z,45.02
2022-08-08T12:57:18.587Z,44.63
2022-08-08T13:00:04.826Z,44.13
2022-08-08T13:02:51.759Z,44.28
2022-08-08T13:06:04.294Z,44.42
2022-08-08T13:08:36.582Z,44.80
2022-08-08T13:11:08.726Z,45.01
2022-08-08T13:13:40.628Z,44.92
2022-08-08T13:16:25.732Z,44.38
2022-08-08T13:19:01.790Z,44.44
2022-08-08T13:21:52.727Z,44.84
2022-08-08T13:24:46.447Z,44.96
2022-08-08T13:27:21.804Z,44.49
2022-08-08T13:29:55.537Z,44.36
2022-08-08T13:32:28.194Z,44.65
2022-08-08T13:35:01.118Z,44.72
2022-08-08T13:38:03.180Z,44.64
2022-08-08T13:40:28.133Z,44.21
2022-08-08T13:42:59.134Z,44.30
2022-08-08T13:45:30.886Z,44.63
2022-08-08T13:48:01.707Z,44.75
2022-08-08T13:50:49.247Z,44.90
2022-08-08T13:53:31.666Z,44.98
2022-08-08T13:56:11.689Z,44.97
2022-08-08T13:58:56.294Z,44.94
2022-08-08T14:01:42.275Z,44.70
2022-08-08T14:04:26.037Z,44.89
2022-08-08T14:07:04.579Z,44.97
2022-08-08T14:10:04.604Z,44.96
2022-08-08T14:12:37.777Z,44.94
2022-08-08T14:15:12.642Z,44.88
2022-08-08T14:17:58.286Z,44.90
2022-08-08T14:20:56.647Z,44.80
2022-08-08T14:24:06.364Z,44.77
2022-08-08T14:26:28.229Z,44.61
2022-08-08T14:29:06.031Z,44.84
2022-08-08T14:32:12.800Z,44.87
2022-08-08T14:34:43.237Z,44.82
2022-08-08T14:37:14.343Z,44.95
2022-08-08T14:39:46.559Z,44.75
2022-08-08T14:42:19.997Z,44.44
2022-08-08T14:45:02.807Z,44.53
2022-08-08T14:47:36.432Z,44.38
2022-08-08T14:50:37.639Z,44.43
2022-08-08T14:53:09.261Z,44.05
2022-08-08T14:55:45.093Z,43.58
2022-08-08T14:58:20.258Z,43.57
2022-08-08T15:00:54.372Z,43.86
2022-08-08T15:03:24.786Z,43.99
2022-08-08T15:05:59.016Z,43.84
2022-08-08T15:08:35.056Z,43.67
2022-08-08T15:11:17.546Z,43.63
2022-08-08T15:14:01.545Z,43.39
2022-08-08T15:16:35.692Z,42.91
2022-08-08T15:19:07.276Z,42.11
2022-08-08T15:21:42.968Z,39.96
2022-08-08T15:24:15.932Z,38.37
2022-08-08T15:26:52.863Z,39.04
2022-08-08T15:29:24.520Z,39.56
2022-08-08T15:32:19.947Z,39.60
2022-08-08T15:34:49.889Z,39.43
2022-08-08T15:37:20.082Z,39.11
2022-08-08T15:39:51.778Z,38.72
2022-08-08T15:42:32.493Z,38.14
2022-08-08T15:45:04.342Z,37.40
2022-08-08T15:47:37.448Z,36.71
2022-08-08T15:50:19.794Z,35.82
2022-08-08T15:52:50.721Z,35.25
2022-08-08T15:55:20.879Z,34.78
2022-08-08T15:57:51.638Z,34.26
2022-08-08T16:00:27.472Z,33.91
2022-08-08T16:03:01.637Z,33.58
2022-08-08T16:05:45.881Z,33.17
2022-08-08T16:08:23.807Z,32.78
2022-08-08T16:13:05.740Z,32.49
2022-08-08T16:13:45.975Z,32.24
2022-08-08T16:16:18.733Z,32.09
2022-08-08T16:18:57.798Z,31.97
2022-08-08T16:21:31.470Z,31.70
2022-08-08T16:24:04.206Z,31.49
2022-08-08T16:26:36.494Z,31.40
2022-08-08T16:29:09.886Z,31.29
2022-08-08T16:31:48.406Z,31.15
2022-08-08T16:34:24.884Z,31.06
2022-08-08T16:36:55.281Z,30.97
2022-08-08T16:39:59.855Z,30.81
2022-08-08T16:42:18.343Z,30.70
2022-08-08T16:44:54.872Z,30.65
2022-08-08T16:47:40.287Z,30.62
2022-08-08T16:50:20.298Z,30.50
2022-08-08T16:54:59.768Z,30.40
2022-08-08T16:55:55.517Z,30.27
2022-08-08T16:58:34.511Z,30.17
2022-08-08T17:01:06.395Z,30.13
2022-08-08T17:03:58.712Z,30.05
2022-08-08T17:06:36.129Z,29.95
2022-08-08T17:09:15.579Z,29.86
2022-08-08T17:11:49.060Z,29.82
2022-08-08T17:14:33.076Z,29.71
2022-08-08T17:17:06.496Z,29.61
2022-08-08T17:19:56.692Z,29.47
2022-08-08T17:22:33.062Z,29.38
2022-08-08T17:25:12.934Z,29.26
2022-08-08T17:27:47.329Z,29.15
2022-08-08T17:30:23.274Z,29.06
2022-08-08T17:34:52.649Z,29.01
2022-08-08T17:35:53.219Z,28.92
2022-08-08T17:38:30.977Z,28.87
2022-08-08T17:41:01.291Z,28.78
2022-08-08T17:44:01.263Z,28.73
2022-08-08T17:46:41.690Z,28.61
2022-08-08T17:49:16.548Z,28.54
2022-08-08T17:51:55.588Z,28.46
2022-08-08T17:54:29.330Z,28.41
2022-08-08T17:56:59.996Z,28.37
2022-08-08T17:59:36.483Z,28.36
2022-08-08T18:02:21.521Z,28.28
2022-08-08T18:05:04.437Z,28.23
2022-08-08T18:08:02.424Z,28.15
2022-08-08T18:10:31.261Z,28.04
2022-08-08T18:13:04.175Z,27.97
2022-08-08T18:15:37.864Z,27.89
2022-08-08T18:18:28.616Z,27.83
2022-08-08T18:21:00.005Z,27.73
2022-08-08T18:23:40.599Z,27.62
2022-08-08T18:26:19.981Z,27.49
2022-08-08T18:28:54.297Z,27.40
2022-08-08T18:31:27.656Z,27.33
2022-08-08T18:34:11.801Z,27.26
2022-08-08T18:36:48.479Z,27.13
2022-08-08T18:39:28.685Z,27.05
2022-08-08T18:42:03.682Z,26.96
2022-08-08T18:44:35.975Z,26.84
2022-08-08T18:47:07.265Z,26.79
2022-08-08T18:49:57.278Z,26.69
2022-08-08T18:52:28.103Z,26.65
2022-08-08T18:55:09.802Z,26.59
2022-08-08T18:57:45.980Z,26.51
2022-08-08T19:00:19.774Z,26.47
2022-08-08T19:02:56.646Z,26.40
2022-08-08T19:05:37.780Z,26.34
2022-08-08T19:08:24.688Z,26.29
2022-08-08T19:11:01.673Z,26.19
2022-08-08T19:13:38.290Z,26.09
2022-08-08T19:16:28.568Z,25.99
2022-08-08T19:19:09.745Z,25.90
2022-08-08T19:21:48.702Z,25.81
2022-08-08T19:24:42.307Z,25.71
2022-08-08T19:27:12.477Z,25.58
2022-08-08T19:29:50.014Z,25.50
2022-08-08T19:32:22.883Z,25.40
2022-08-08T19:34:55.054Z,25.29
2022-08-08T19:37:42.255Z,25.23
2022-08-08T19:40:16.678Z,25.21
2022-08-08T19:42:48.163Z,25.17
2022-08-08T19:45:59.566Z,25.10
2022-08-08T19:48:29.186Z,25.00
2022-08-08T19:51:01.856Z,24.92
2022-08-08T19:53:53.613Z,24.89
2022-08-08T19:56:25.831Z,24.79
2022-08-08T19:59:12.394Z,24.70
2022-08-08T20:02:01.659Z,24.64
2022-08-08T20:04:34.820Z,24.52
2022-08-08T20:08:27.000Z,24.43
2022-08-08T20:09:58.619Z,24.33
2022-08-08T20:12:32.694Z,24.28
2022-08-08T20:15:14.156Z,24.15
2022-08-08T20:17:50.184Z,24.07
2022-08-08T20:20:25.299Z,23.99
2022-08-08T20:22:56.415Z,23.95
2022-08-08T20:25:30.115Z,23.90
2022-08-08T20:28:06.803Z,23.86
2022-08-08T20:30:56.353Z,23.84
2022-08-08T20:34:30.677Z,23.86
2022-08-08T20:36:22.334Z,23.77
2022-08-08T20:38:52.632Z,23.72
2022-08-08T20:41:22.821Z,23.65
2022-08-08T20:43:56.841Z,23.61
2022-08-08T20:46:29.471Z,23.56
2022-08-08T20:49:02.312Z,23.52
2022-08-08T20:51:33.183Z,23.49
2022-08-08T20:54:14.532Z,23.41
2022-08-08T20:57:05.767Z,23.37
2022-08-08T20:59:44.888Z,23.34
2022-08-08T21:02:19.734Z,23.33
2022-08-08T21:05:01.025Z,23.26
2022-08-08T21:08:33.491Z,23.21
2022-08-08T21:10:28.123Z,23.17
2022-08-08T21:12:58.500Z,23.15
2022-08-08T21:16:06.174Z,23.11
2022-08-08T21:18:19.404Z,23.07
2022-08-08T21:20:52.411Z,23.05
2022-08-08T21:23:58.810Z,23.05
2022-08-08T21:26:26.775Z,23.02
2022-08-08T21:29:01.176Z,22.98
2022-08-08T21:31:53.093Z,22.95
2022-08-08T21:34:23.097Z,22.88
2022-08-08T21:36:58.416Z,22.82
2022-08-08T21:39:54.798Z,22.77
2022-08-08T21:42:19.249Z,22.76
2022-08-08T21:44:58.948Z,22.71
2022-08-08T21:48:04.550Z,22.68
2022-08-08T21:50:21.654Z,22.67
2022-08-08T21:54:31.171Z,22.61
2022-08-08T21:56:29.550Z,22.55
2022-08-08T21:58:37.277Z,22.50
2022-08-08T22:01:25.345Z,22.45
2022-08-08T22:03:59.614Z,22.37
2022-08-08T22:06:32.034Z,22.35
2022-08-08T22:09:08.284Z,22.33
2022-08-08T22:11:51.385Z,22.30
2022-08-08T22:14:29.327Z,22.23
2022-08-08T22:17:00.961Z,22.17
2022-08-08T22:20:12.191Z,22.14
2022-08-08T22:22:28.752Z,22.13
2022-08-08T22:25:03.006Z,22.08
2022-08-08T22:28:04.317Z,22.07
2022-08-08T22:30:33.457Z,22.05
2022-08-08T22:33:06.037Z,22.04
2022-08-08T22:36:04.384Z,22.01
2022-08-08T22:38:47.941Z,21.98
2022-08-08T22:41:23.414Z,21.89
2022-08-08T22:44:02.649Z,21.80
2022-08-08T22:46:38.790Z,21.77
2022-08-08T22:49:10.117Z,21.70
2022-08-08T22:51:42.786Z,21.67
2022-08-08T22:54:33.247Z,21.64
2022-08-08T22:57:18.035Z,21.65
2022-08-08T22:59:59.570Z,21.67
2022-08-08T23:02:31.641Z,21.68
2022-08-08T23:05:05.111Z,21.61
2022-08-08T23:07:51.886Z,21.60
2022-08-08T23:10:29.777Z,21.61
2022-08-08T23:13:02.600Z,21.66
2022-08-08T23:16:37.660Z,21.75
2022-08-08T23:18:25.716Z,21.80
2022-08-08T23:21:03.640Z,21.82
2022-08-08T23:23:48.265Z,21.72
2022-08-08T23:26:25.263Z,21.61
2022-08-08T23:28:57.983Z,21.53
2022-08-08T23:31:28.135Z,21.49
2022-08-08T23:34:16.645Z,21.45
2022-08-08T23:36:48.716Z,21.38
2022-08-08T23:39:18.938Z,21.35
2022-08-08T23:41:50.973Z,21.28
2022-08-08T23:44:25.494Z,21.19
2022-08-08T23:49:00.669Z,21.15
2022-08-08T23:50:02.852Z,21.18
2022-08-08T23:52:34.472Z,21.13
2022-08-08T23:55:14.669Z,21.10
2022-08-08T23:57:53.507Z,21.09
